createdAt,value
2018-06-24T00:01:41.858Z,9.53
2018-06-24T00:08:28.113Z,11.70
2018-06-24T00:11:38.264Z,9.33
2018-06-24T00:18:24.715Z,6.85
2018-06-24T00:21:34.912Z,7.97
2018-06-24T00:24:45.532Z,7.47
2018-06-24T00:27:55.742Z,7.30
2018-06-24T00:31:05.859Z,8.78
2018-06-24T00:34:15.951Z,10.38
2018-06-24T00:37:26.581Z,7.90
2018-06-24T00:40:36.444Z,7.47
2018-06-24T00:43:46.385Z,9.75
2018-06-24T00:46:57.974Z,9.63
2018-06-24T00:50:08.293Z,7.15
2018-06-24T00:53:18.507Z,8.43
2018-06-24T00:56:29.136Z,7.65
2018-06-24T00:59:50.933Z,7.70
2018-06-24T01:03:01.360Z,8.20
2018-06-24T01:06:12.088Z,7.65
2018-06-24T01:09:23.053Z,6.30
2018-06-24T01:12:33.725Z,8.40
2018-06-24T01:15:43.708Z,8.20
2018-06-24T01:18:53.573Z,7.78
2018-06-24T01:22:04.559Z,8.50
2018-06-24T01:25:21.238Z,6.17
2018-06-24T01:28:31.431Z,7.87
2018-06-24T01:31:42.284Z,7.60
2018-06-24T01:34:53.154Z,7.22
2018-06-24T01:38:03.326Z,10.98
2018-06-24T01:41:14.337Z,7.30
2018-06-24T01:44:25.101Z,8.58
2018-06-24T01:47:35.115Z,10.32
2018-06-24T01:50:45.915Z,8.63
2018-06-24T01:53:56.032Z,8.75
2018-06-24T01:57:07.756Z,8.60
2018-06-24T02:00:17.624Z,9.53
2018-06-24T02:03:27.561Z,6.90
2018-06-24T02:06:38.181Z,8.25
2018-06-24T02:09:49.030Z,7.85
2018-06-24T02:12:59.865Z,7.85
2018-06-24T02:16:10.322Z,5.75
2018-06-24T02:19:21.067Z,7.75
2018-06-24T02:22:31.017Z,8.53
2018-06-24T02:25:41.034Z,8.15
2018-06-24T02:28:51.734Z,5.12
2018-06-24T02:32:01.590Z,8.35
2018-06-24T02:35:11.552Z,10.32
2018-06-24T02:38:21.445Z,8.25
2018-06-24T02:41:32.302Z,8.10
2018-06-24T02:44:42.892Z,9.35
2018-06-24T02:47:52.986Z,8.88
2018-06-24T02:51:03.276Z,8.45
2018-06-24T02:54:14.021Z,8.83
2018-06-24T02:57:25.417Z,9.13
2018-06-24T03:00:35.918Z,11.30
2018-06-24T03:03:46.572Z,8.20
2018-06-24T03:06:57.377Z,8.75
2018-06-24T03:10:08.836Z,9.08
2018-06-24T03:13:19.028Z,6.10
2018-06-24T03:16:28.862Z,6.75
2018-06-24T03:19:39.692Z,7.80
2018-06-24T03:22:49.900Z,11.55
2018-06-24T03:26:00.480Z,9.13
2018-06-24T03:29:10.458Z,8.68
2018-06-24T03:32:20.704Z,9.68
2018-06-24T03:35:31.489Z,10.30
2018-06-24T03:38:42.380Z,9.70
2018-06-24T03:41:52.595Z,10.10
2018-06-24T03:45:03.396Z,11.95
2018-06-24T03:48:13.237Z,8.78
2018-06-24T03:51:23.320Z,10.70
2018-06-24T03:54:34.849Z,10.58
2018-06-24T03:57:45.992Z,9.38
2018-06-24T04:00:56.509Z,8.60
2018-06-24T04:04:06.856Z,10.75
2018-06-24T04:07:17.805Z,10.40
2018-06-24T04:10:27.737Z,9.98
2018-06-24T04:13:38.478Z,9.43
2018-06-24T04:16:49.109Z,10.13
2018-06-24T04:19:59.064Z,12.63
2018-06-24T04:23:19.911Z,7.58
2018-06-24T04:26:30.688Z,10.10
2018-06-24T04:29:41.480Z,9.45
2018-06-24T04:32:51.369Z,10.78
2018-06-24T04:36:02.210Z,8.03
2018-06-24T04:39:13.050Z,9.95
2018-06-24T04:42:23.011Z,9.63
2018-06-24T04:45:32.839Z,8.45
2018-06-24T04:48:42.872Z,9.88
2018-06-24T04:51:52.870Z,7.78
2018-06-24T04:55:03.166Z,7.85
2018-06-24T04:58:14.039Z,7.80
2018-06-24T05:01:24.898Z,8.53
2018-06-24T05:04:35.674Z,6.65
2018-06-24T05:07:47.335Z,11.90
2018-06-24T05:10:57.486Z,8.73
2018-06-24T05:14:07.593Z,8.70
2018-06-24T05:17:17.804Z,9.15
2018-06-24T05:20:28.582Z,6.78
2018-06-24T05:23:38.724Z,8.10
2018-06-24T05:26:49.474Z,8.25
2018-06-24T05:29:59.328Z,7.70
2018-06-24T05:33:09.685Z,8.00
2018-06-24T05:36:20.355Z,9.13
2018-06-24T05:39:30.362Z,9.20
2018-06-24T05:42:40.909Z,9.43
2018-06-24T05:45:51.154Z,9.90
2018-06-24T05:49:01.020Z,9.45
2018-06-24T05:52:11.817Z,7.90
2018-06-24T05:55:22.447Z,7.33
2018-06-24T05:58:32.929Z,5.58
2018-06-24T06:01:43.425Z,6.75
2018-06-24T06:04:53.752Z,7.80
2018-06-24T06:08:05.471Z,7.95
2018-06-24T06:11:15.820Z,6.03
2018-06-24T06:14:26.804Z,5.90
2018-06-24T06:17:36.922Z,6.72
2018-06-24T06:20:47.577Z,6.08
2018-06-24T06:24:05.084Z,4.85
2018-06-24T06:27:17.516Z,5.78
2018-06-24T06:30:45.921Z,5.65
2018-06-24T06:34:39.893Z,5.78
2018-06-24T06:37:51.794Z,7.60
2018-06-24T06:41:03.095Z,7.30
2018-06-24T06:44:13.498Z,8.63
2018-06-24T06:47:24.268Z,7.47
2018-06-24T06:50:35.285Z,10.30
2018-06-24T06:53:46.000Z,5.42
2018-06-24T06:56:56.881Z,5.47
2018-06-24T07:00:07.669Z,5.35
2018-06-24T07:03:18.298Z,7.00
2018-06-24T07:06:28.972Z,6.12
2018-06-24T07:09:39.823Z,5.72
2018-06-24T07:12:50.887Z,4.85
2018-06-24T07:16:01.470Z,5.12
2018-06-24T07:19:11.272Z,6.40
2018-06-24T07:22:21.392Z,5.90
2018-06-24T07:25:32.372Z,7.40
2018-06-24T07:28:43.211Z,4.65
2018-06-24T07:31:53.740Z,3.80
2018-06-24T07:35:04.340Z,4.95
2018-06-24T07:38:14.344Z,3.12
2018-06-24T07:41:24.629Z,4.20
2018-06-24T07:44:35.203Z,3.90
2018-06-24T07:47:45.408Z,7.00
2018-06-24T07:50:56.514Z,5.17
2018-06-24T07:54:06.892Z,2.87
2018-06-24T07:57:17.785Z,3.87
2018-06-24T08:00:28.628Z,5.62
2018-06-24T08:03:39.183Z,6.55
2018-06-24T08:06:50.026Z,5.65
2018-06-24T08:10:02.438Z,5.05
2018-06-24T08:13:13.760Z,3.67
2018-06-24T08:16:24.023Z,4.12
2018-06-24T08:19:34.836Z,5.08
2018-06-24T08:22:45.557Z,5.20
2018-06-24T08:25:56.139Z,4.00
2018-06-24T08:29:07.672Z,4.78
2018-06-24T08:32:17.622Z,5.10
2018-06-24T08:35:28.165Z,3.27
2018-06-24T08:38:38.967Z,4.58
2018-06-24T08:41:49.672Z,3.42
2018-06-24T08:45:00.361Z,6.53
2018-06-24T08:48:11.097Z,3.30
2018-06-24T08:51:32.629Z,3.67
2018-06-24T08:54:51.800Z,3.95
2018-06-24T08:58:02.549Z,3.80
2018-06-24T09:04:22.440Z,3.15
2018-06-24T09:07:32.919Z,2.90
2018-06-24T09:10:43.547Z,3.30
2018-06-24T09:13:53.354Z,4.70
2018-06-24T09:17:04.161Z,2.65
2018-06-24T09:20:14.746Z,2.80
2018-06-24T09:23:25.622Z,2.85
2018-06-24T09:26:36.376Z,2.65
2018-06-24T09:29:47.053Z,3.35
2018-06-24T09:32:57.684Z,4.10
2018-06-24T09:36:08.316Z,2.70
2018-06-24T09:39:18.869Z,2.75
2018-06-24T09:42:29.957Z,2.83
2018-06-24T09:45:40.501Z,3.20
2018-06-24T09:48:50.983Z,2.80
2018-06-24T09:52:01.600Z,3.30
2018-06-24T09:55:13.423Z,2.60
2018-06-24T09:58:24.384Z,2.40
2018-06-24T10:01:35.269Z,1.75
2018-06-24T10:04:46.113Z,2.75
2018-06-24T10:07:56.730Z,2.40
2018-06-24T10:11:07.607Z,2.20
2018-06-24T10:14:18.133Z,5.55
2018-06-24T10:17:28.126Z,5.47
2018-06-24T10:20:39.482Z,7.10
2018-06-24T10:23:49.986Z,3.12
2018-06-24T10:27:00.401Z,6.58
2018-06-24T10:30:10.860Z,2.87
2018-06-24T10:33:20.868Z,6.10
2018-06-24T10:36:31.381Z,4.28
2018-06-24T10:39:42.341Z,5.85
2018-06-24T10:42:52.805Z,2.27
2018-06-24T10:46:02.724Z,2.92
2018-06-24T10:49:12.813Z,4.85
2018-06-24T10:52:22.911Z,2.75
2018-06-24T10:55:34.009Z,3.12
2018-06-24T10:58:44.596Z,2.42
2018-06-24T11:01:55.244Z,3.37
2018-06-24T11:05:06.217Z,2.10
2018-06-24T11:08:16.848Z,5.00
2018-06-24T11:11:27.783Z,1.98
2018-06-24T11:14:38.465Z,3.67
2018-06-24T11:17:49.400Z,2.92
2018-06-24T11:20:59.395Z,1.85
2018-06-24T11:24:09.804Z,2.20
2018-06-24T11:27:20.564Z,2.77
2018-06-24T11:30:30.980Z,2.52
2018-06-24T11:33:41.676Z,1.87
2018-06-24T11:36:52.537Z,3.80
2018-06-24T11:40:02.671Z,2.10
2018-06-24T11:43:12.838Z,3.05
2018-06-24T11:46:23.440Z,2.60
2018-06-24T11:49:33.923Z,3.15
2018-06-24T11:52:43.895Z,3.42
2018-06-24T11:55:55.151Z,2.40
2018-06-24T11:59:05.401Z,2.87
2018-06-24T12:02:15.356Z,3.15
2018-06-24T12:05:26.116Z,3.12
2018-06-24T12:08:36.879Z,2.22
2018-06-24T12:11:47.633Z,3.12
2018-06-24T12:14:58.392Z,3.08
2018-06-24T12:18:09.918Z,2.77
2018-06-24T12:21:20.240Z,3.25
2018-06-24T12:24:30.884Z,2.98
2018-06-24T12:27:41.641Z,2.45
2018-06-24T12:30:52.444Z,3.17
2018-06-24T12:34:03.421Z,3.10
2018-06-24T12:37:13.912Z,2.30
2018-06-24T12:40:33.017Z,2.98
2018-06-24T12:43:43.989Z,2.77
2018-06-24T12:46:54.793Z,2.83
2018-06-24T12:50:06.108Z,2.37
2018-06-24T12:53:16.694Z,2.67
2018-06-24T12:56:27.152Z,2.58
2018-06-24T12:59:37.530Z,2.20
2018-06-24T13:02:48.026Z,2.50
2018-06-24T13:05:59.437Z,2.72
2018-06-24T13:09:09.910Z,2.95
2018-06-24T13:12:21.224Z,2.17
2018-06-24T13:15:32.274Z,2.90
2018-06-24T13:18:42.940Z,3.37
2018-06-24T13:21:53.813Z,2.35
2018-06-24T13:25:04.642Z,2.35
2018-06-24T13:28:15.393Z,3.87
2018-06-24T13:31:25.430Z,2.75
2018-06-24T13:34:36.160Z,3.60
2018-06-24T13:37:46.569Z,3.08
2018-06-24T13:40:57.262Z,4.00
2018-06-24T13:44:08.301Z,3.02
2018-06-24T13:47:18.638Z,3.55
2018-06-24T13:50:29.638Z,2.60
2018-06-24T13:53:39.837Z,3.52
2018-06-24T13:56:50.089Z,2.20
2018-06-24T14:00:00.756Z,1.80
2018-06-24T14:03:11.157Z,1.30
2018-06-24T14:06:22.617Z,3.02
2018-06-24T14:09:32.832Z,2.85
2018-06-24T14:12:43.185Z,3.20
2018-06-24T14:15:53.165Z,3.60
2018-06-24T14:19:04.113Z,5.00
2018-06-24T14:22:14.797Z,4.30
2018-06-24T14:25:24.685Z,2.72
2018-06-24T14:28:35.033Z,2.50
2018-06-24T14:31:45.505Z,3.20
2018-06-24T14:34:56.409Z,2.42
2018-06-24T14:38:07.212Z,3.08
2018-06-24T14:41:19.014Z,3.75
2018-06-24T14:44:29.462Z,2.95
2018-06-24T14:47:40.172Z,3.10
2018-06-24T14:50:50.276Z,3.10
2018-06-24T14:54:00.413Z,3.62
2018-06-24T14:57:11.186Z,3.65
2018-06-24T15:00:21.229Z,3.10
2018-06-24T15:03:31.728Z,2.80
2018-06-24T15:06:43.710Z,2.80
2018-06-24T15:09:54.334Z,3.30
2018-06-24T15:13:05.410Z,3.60
2018-06-24T15:16:16.574Z,3.80
2018-06-24T15:19:27.325Z,4.25
2018-06-24T15:22:38.195Z,3.75
2018-06-24T15:25:49.080Z,3.52
2018-06-24T15:28:59.758Z,2.77
2018-06-24T15:32:16.216Z,2.33
2018-06-24T15:35:27.838Z,3.60
2018-06-24T15:38:39.490Z,3.10
2018-06-24T15:42:05.909Z,3.70
2018-06-24T15:45:16.960Z,4.05
2018-06-24T15:48:27.655Z,3.10
2018-06-24T15:51:41.430Z,4.20
2018-06-24T15:54:57.080Z,4.67
2018-06-24T15:58:09.357Z,4.85
2018-06-24T16:01:26.903Z,3.37
2018-06-24T16:04:38.241Z,4.40
2018-06-24T16:07:49.693Z,3.77
2018-06-24T16:10:59.873Z,4.25
2018-06-24T16:14:10.569Z,4.40
2018-06-24T16:17:20.126Z,4.65
2018-06-24T16:20:30.434Z,3.90
2018-06-24T16:23:41.251Z,5.35
2018-06-24T16:26:51.741Z,5.78
2018-06-24T16:30:02.062Z,5.53
2018-06-24T16:33:11.967Z,4.17
2018-06-24T16:36:39.734Z,6.40
2018-06-24T16:39:50.783Z,5.22
2018-06-24T16:43:09.130Z,5.83
2018-06-24T16:46:19.685Z,6.33
2018-06-24T16:49:30.267Z,6.42
2018-06-24T16:52:40.879Z,8.05
2018-06-24T16:55:51.382Z,7.05
2018-06-24T16:59:01.476Z,9.05
2018-06-24T17:02:11.478Z,9.75
2018-06-24T17:05:22.132Z,7.80
2018-06-24T17:08:33.189Z,9.18
2018-06-24T17:11:43.864Z,9.03
2018-06-24T17:14:54.404Z,7.10
2018-06-24T17:18:05.338Z,8.25
2018-06-24T17:21:15.495Z,8.78
2018-06-24T17:24:25.425Z,11.18
2018-06-24T17:27:36.281Z,11.60
2018-06-24T17:30:47.157Z,9.65
2018-06-24T17:33:58.009Z,9.15
2018-06-24T17:37:08.187Z,9.25
2018-06-24T17:40:19.189Z,9.20
2018-06-24T17:43:29.169Z,7.33
2018-06-24T17:46:39.857Z,8.35
2018-06-24T17:49:50.538Z,6.83
2018-06-24T17:53:00.745Z,8.70
2018-06-24T17:56:11.324Z,8.50
2018-06-24T17:59:21.972Z,6.65
2018-06-24T18:02:32.850Z,6.92
2018-06-24T18:05:42.880Z,7.85
2018-06-24T18:08:53.053Z,8.00
2018-06-24T18:12:03.898Z,9.50
2018-06-24T18:15:14.926Z,6.90
2018-06-24T18:18:26.465Z,8.50
2018-06-24T18:21:36.691Z,7.78
2018-06-24T18:24:46.852Z,6.83
2018-06-24T18:27:57.381Z,8.05
2018-06-24T18:31:08.106Z,8.23
2018-06-24T18:34:18.731Z,8.70
2018-06-24T18:37:29.589Z,8.30
2018-06-24T18:40:40.819Z,7.28
2018-06-24T18:43:51.136Z,10.00
2018-06-24T18:47:01.877Z,8.38
2018-06-24T18:50:12.265Z,8.68
2018-06-24T18:53:22.646Z,7.97
2018-06-24T18:56:32.759Z,8.03
2018-06-24T18:59:42.601Z,8.10
2018-06-24T19:02:54.298Z,6.65
2018-06-24T19:06:05.183Z,7.75
2018-06-24T19:09:16.291Z,5.85
2018-06-24T19:12:26.466Z,8.55
2018-06-24T19:15:36.652Z,7.87
2018-06-24T19:18:47.867Z,7.17
2018-06-24T19:21:58.562Z,9.10
2018-06-24T19:25:09.824Z,6.97
2018-06-24T19:28:20.393Z,7.42
2018-06-24T19:31:31.356Z,8.88
2018-06-24T19:34:42.146Z,7.65
2018-06-24T19:37:52.860Z,8.60
2018-06-24T19:41:03.741Z,6.47
2018-06-24T19:44:14.547Z,7.08
2018-06-24T19:47:25.088Z,4.62
2018-06-24T19:50:34.958Z,6.08
2018-06-24T19:53:44.808Z,6.00
2018-06-24T19:56:54.719Z,5.12
2018-06-24T20:00:05.532Z,4.95
2018-06-24T20:03:15.469Z,6.33
2018-06-24T20:06:26.366Z,6.55
2018-06-24T20:09:38.406Z,5.40
2018-06-24T20:12:48.622Z,6.47
2018-06-24T20:15:59.681Z,5.00
2018-06-24T20:19:11.357Z,10.13
2018-06-24T20:22:21.400Z,6.87
2018-06-24T20:25:31.744Z,6.03
2018-06-24T20:28:42.145Z,7.25
2018-06-24T20:31:52.110Z,8.28
2018-06-24T20:35:02.764Z,9.25
2018-06-24T20:38:13.475Z,7.62
2018-06-24T20:41:24.138Z,8.55
2018-06-24T20:44:34.976Z,6.92
2018-06-24T20:47:45.385Z,7.90
2018-06-24T20:50:55.401Z,6.78
2018-06-24T20:54:06.781Z,7.15
2018-06-24T20:57:17.313Z,7.37
2018-06-24T21:00:27.440Z,7.30
2018-06-24T21:03:38.325Z,9.20
2018-06-24T21:06:48.997Z,6.37
2018-06-24T21:09:59.529Z,6.83
2018-06-24T21:13:09.660Z,8.08
2018-06-24T21:16:20.241Z,8.50
2018-06-24T21:19:30.297Z,7.35
2018-06-24T21:22:41.133Z,8.50
2018-06-24T21:25:51.976Z,7.85
2018-06-24T21:29:02.257Z,8.10
2018-06-24T21:35:48.655Z,6.40
2018-06-24T21:39:00.023Z,10.40
2018-06-24T21:42:10.660Z,6.72
2018-06-24T21:45:21.127Z,6.00
2018-06-24T21:48:31.226Z,6.75
2018-06-24T21:51:41.756Z,7.72
2018-06-24T21:54:51.736Z,8.78
2018-06-24T21:58:02.803Z,9.10
2018-06-24T22:01:13.093Z,7.10
2018-06-24T22:04:22.941Z,11.40
2018-06-24T22:07:34.065Z,6.78
2018-06-24T22:10:44.533Z,8.95
2018-06-24T22:13:54.694Z,7.53
2018-06-24T22:17:04.550Z,8.83
2018-06-24T22:20:15.462Z,6.47
2018-06-24T22:23:26.325Z,8.80
2018-06-24T22:26:37.188Z,9.43
2018-06-24T22:29:47.411Z,6.75
2018-06-24T22:32:58.172Z,7.00
2018-06-24T22:36:10.733Z,9.60
2018-06-24T22:39:20.856Z,10.20
2018-06-24T22:42:31.449Z,8.68
2018-06-24T22:45:42.715Z,7.12
2018-06-24T22:48:52.897Z,7.70
2018-06-24T22:52:02.758Z,7.78
2018-06-24T22:55:13.572Z,8.98
2018-06-24T22:58:24.780Z,8.83
2018-06-24T23:01:35.360Z,8.35
2018-06-24T23:04:45.691Z,10.95
2018-06-24T23:07:56.432Z,8.80
2018-06-24T23:11:07.231Z,8.33
2018-06-24T23:14:17.903Z,8.55
2018-06-24T23:17:28.428Z,10.15
2018-06-24T23:20:38.980Z,9.15
2018-06-24T23:23:48.885Z,8.88
2018-06-24T23:26:59.570Z,8.98
2018-06-24T23:30:10.369Z,8.08
2018-06-24T23:33:20.236Z,9.03
2018-06-24T23:36:30.938Z,9.45
2018-06-24T23:39:41.378Z,8.50
2018-06-24T23:42:52.053Z,8.65
2018-06-24T23:46:03.264Z,9.70
2018-06-24T23:49:13.615Z,7.60
2018-06-24T23:52:23.540Z,8.13
2018-06-24T23:55:33.438Z,9.55
2018-06-24T23:58:43.485Z,9.10
